Latest Coastal Weather Observations for Low Head

IDT60701

Issued at 3:22 pm EDT Sunday 1 March 2015 (issued every 10 minutes, with the page automatically refreshed every 10 minutes)

About coastal observations | Map of coastal stations | Coastal observations for TAS | Marine services | Other Formats
Station Details ID: 091293 Name: LOW HEAD Lat: -41.05 Lon: 146.79 Height: 3.0 m
Data from the previous 72 hours. | See also: Recent months at Low Head
Date/Time
EDT
Temp

°C
Wind Pressure Rain
since 9am
mm
Weather Cloud Vis
km
Sea
Height
m
Swell
Dir
 
Speed
knots
Gust
knots
hPa Trend Height
m
Period
s
Dir
01/03:00pm 20.7 WNW 21 25 1010.0 - 0.0 - - - - - - -
01/02:30pm 20.8 WNW 22 25 1009.9 - 0.0 - - - - - - -
01/02:00pm 20.0 WNW 20 24 1009.6 - 0.0 - - - - - - -
01/01:30pm 20.0 WNW 19 23 1009.4 - 0.0 - - - - - - -
01/01:00pm 19.6 WNW 22 26 1009.3 - 0.0 - - - - - - -
01/12:30pm 19.7 WNW 18 21 1009.1 - 0.0 - - - - - - -
01/12:00pm 18.9 W 19 22 1008.8 - 0.0 - - - - - - -
01/11:30am 18.7 W 18 21 1008.7 - 0.0 - - - - - - -
01/11:00am 18.2 W 18 22 1008.3 - 0.0 - - - - - - -
01/10:30am 18.3 WSW 15 18 1008.0 - 0.0 - - - - - - -
01/10:00am 17.5 WSW 17 22 1007.3 - 0.0 - - - - - - -
01/09:30am 16.6 WSW 19 21 1006.7 - 0.0 - - - - - - -
01/09:00am 16.2 WSW 19 23 1006.3 - 4.2 - - - - - - -
01/08:30am 15.9 WSW 20 23 1005.7 - 4.2 - - - - - - -
01/08:00am 15.8 WSW 21 24 1004.9 - 4.2 - - - - - - -
01/07:30am 15.8 WSW 19 23 1004.2 - 4.2 - - - - - - -
01/07:00am 15.5 WSW 20 23 1003.7 - 4.2 - - - - - - -
01/06:30am 15.8 WSW 19 23 1003.0 - 4.2 - - - - - - -
01/06:00am 16.2 WSW 19 22 1002.5 - 4.2 - - - - - - -
01/05:30am 16.2 WSW 19 22 1002.1 - 4.2 - - - - - - -
01/05:00am 16.2 WSW 19 22 1001.9 - 4.2 - - - - - - -
01/04:30am 16.2 SW 13 21 1001.9 - 4.2 - - - - - - -
01/04:00am 16.6 W 15 20 1001.7 - 4.2 - - - - - - -
01/03:30am 16.7 W 18 21 1001.9 - 4.2 - - - - - - -
01/03:00am 16.5 WSW 14 18 1001.5 - 4.2 - - - - - - -
01/02:30am 17.0 WSW 16 19 1001.6 - 4.2 - - - - - - -
01/02:00am 17.4 W 20 23 1001.5 - 4.2 - - - - - - -
01/01:30am 17.9 W 20 23 1001.5 - 4.2 - - - - - - -
01/01:00am 18.3 W 17 22 1001.6 - 4.2 - - - - - - -
01/12:30am 18.1 WNW 19 21 1001.5 - 4.2 - - - - - - -
01/12:00am 18.5 WNW 19 21 1001.8 - 4.2 Recent precip. - - - - - -
 
Date/Time
EDT
Temp

°C
Wind Pressure Rain
since 9am
mm
Weather Cloud Vis
km
Sea
Height
m
Swell
Dir
 
Speed
knots
Gust
knots
hPa Trend Height
m
Period
s
Dir
28/11:30pm 18.5 WNW 19 21 1002.0 - 4.0 - - - - - - -
28/11:00pm 18.7 WNW 17 20 1001.8 - 4.0 - - - - - - -
28/10:30pm 18.9 NW 16 22 1002.2 - 3.8 - - - - - - -
28/10:00pm 19.1 NW 14 18 1002.0 - 2.8 - - - - - - -
28/09:30pm 19.1 NNW 15 17 1001.7 - 2.6 - - - - - - -
28/09:00pm 19.2 NNW 12 14 1001.0 - 2.6 Recent precip. - - - - - -
28/08:30pm 19.4 NNW 11 15 1001.0 - 2.4 - - - - - - -
28/08:00pm 19.7 NNW 11 13 1001.1 - 1.2 - - - - - - -
28/07:30pm 19.6 N 11 13 1000.8 - 1.2 - - - - - - -
28/07:00pm 19.6 N 12 14 1000.7 - 1.2 - - - - - - -
28/06:30pm 19.7 N 13 15 1000.9 - 1.2 - - - - - - -
28/06:00pm 19.6 NNW 13 15 1001.1 - 1.2 - - - - - - -
28/05:30pm 19.8 NNW 13 16 1001.3 - 1.2 - - - - - - -
28/05:00pm 19.3 N 13 15 1001.7 - 1.2 - - - - - - -
28/04:30pm 19.0 N 14 17 1001.9 - 1.2 - - - - - - -
28/04:00pm 18.7 N 17 21 1002.0 - 1.2 - - - - - - -
28/03:30pm 18.8 N 17 21 1002.4 - 1.2 - - - - - - -
28/03:00pm 18.5 NNE 16 19 1002.9 - 1.0 Rain - - - - - -
28/02:30pm 18.5 NNE 16 17 1003.6 - 0.0 - - - - - - -
28/02:00pm 18.6 N 13 16 1004.0 - 0.0 - - - - - - -
28/01:30pm 18.3 N 11 13 1004.5 - 0.0 - - - - - - -
28/01:00pm 18.5 NNE 10 12 1004.8 - 0.0 - - - - - - -
28/12:30pm 18.1 NNE 11 13 1005.0 - 0.0 - - - - - - -
28/12:00pm 17.8 NNE 11 13 1005.5 - 0.0 - - - - - - -
28/11:30am 17.9 NNE 11 13 1006.0 - 0.0 - - - - - - -
28/11:00am 17.6 NE 10 11 1006.0 - 0.0 - - - - - - -
28/10:30am 17.6 NNE 10 11 1006.1 - 0.0 - - - - - - -
28/10:00am 17.6 NNE 10 12 1006.6 - 0.0 - - - - - - -
28/09:30am 17.6 NNE 11 13 1006.7 - 0.0 - - - - - - -
28/09:00am 17.5 NNE 10 13 1006.6 - 0.0 - - - - - - -
28/08:30am 17.4 NNE 10 14 1006.8 - 0.0 - - - - - - -
28/08:00am 17.5 NNE 12 15 1006.7 - 0.0 - - - - - - -
28/07:30am 17.3 NNE 13 15 1006.6 - 0.0 - - - - - - -
28/07:00am 16.9 NNE 11 14 1006.4 - 0.0 - - - - - - -
28/06:30am 13.8 SE 6 8 1006.9 - 0.0 - - - - - - -
28/06:00am 13.5 SE 6 8 1007.2 - 0.0 - - - - - - -
28/05:30am 13.4 SE 6 9 1007.4 - 0.0 - - - - - - -
28/05:00am 12.9 SSE 8 10 1007.3 - 0.0 - - - - - - -
28/04:30am 12.7 SSE 8 10 1007.4 - 0.0 - - - - - - -
28/04:00am 13.1 SSE 9 10 1007.9 - 0.0 - - - - - - -
28/03:30am 13.1 SSE 8 10 1008.3 - 0.0 - - - - - - -
28/03:00am 13.4 SSE 9 11 1008.5 - 0.0 - - - - - - -
28/02:30am 13.6 SSE 9 13 1008.7 - 0.0 - - - - - - -
28/02:00am 13.8 SSE 10 13 1008.5 - 0.0 - - - - - - -
28/01:30am 14.2 SSE 10 12 1008.7 - 0.0 - - - - - - -
28/01:00am 14.1 SSE 9 11 1008.5 - 0.0 - - - - - - -
28/12:30am 14.4 SSE 6 8 1008.9 - 0.0 - - - - - - -
28/12:00am 14.6 S 5 7 1008.9 - 0.0 - - - - - - -
 
Date/Time
EDT
Temp

°C
Wind Pressure Rain
since 9am
mm
Weather Cloud Vis
km
Sea
Height
m
Swell
Dir
 
Speed
knots
Gust
knots
hPa Trend Height
m
Period
s
Dir
27/11:30pm 15.0 SSE 6 8 1009.2 - 0.0 - - - - - - -
27/11:00pm 14.9 SSE 7 8 1009.0 - 0.0 - - - - - - -
27/10:30pm 15.6 SSE 8 10 1009.1 - 0.0 - - - - - - -
27/10:00pm 15.8 SSE 6 7 1009.1 - 0.0 - - - - - - -
27/09:30pm 16.6 SE 6 7 1008.7 - 0.0 - - - - - - -
27/09:00pm 17.3 ESE 5 8 1008.2 - 0.0 - - - - - - -
27/08:30pm 18.0 CALM 0 0 1007.9 - 0.0 - - - - - - -
27/08:00pm 18.6 NW 5 8 1007.8 - 0.0 - - - - - - -
27/07:30pm 19.3 NW 10 12 1007.6 - 0.0 - - - - - - -
27/07:00pm 19.3 WNW 12 14 1007.5 - 0.0 - - - - - - -
27/06:30pm 19.2 WNW 15 18 1007.8 - 0.0 - - - - - - -
27/06:00pm 18.7 NW 15 17 1007.6 - 0.0 - - - - - - -
27/05:30pm 18.9 NW 15 18 1007.6 - 0.0 - - - - - - -
27/05:00pm 18.4 NW 9 12 1007.8 - 0.0 - - - - - - -
27/04:30pm 18.7 NW 8 9 1008.0 - 0.0 - - - - - - -
27/04:00pm 18.6 NW 8 11 1008.0 - 0.0 - - - - - - -
27/03:30pm 17.8 NNW 7 10 1008.4 - 0.0 - - - - - - -
27/03:00pm 17.9 NNW 9 11 1008.8 - 0.0 - - - - - - -
27/02:30pm 18.8 NNW 13 16 1009.3 - 0.0 - - - - - - -
27/02:00pm 18.6 NNW 11 14 1009.4 - 0.0 - - - - - - -
27/01:30pm 18.5 NNW 12 15 1009.1 - 0.0 - - - - - - -
27/01:00pm 18.4 N 13 15 1009.7 - 0.0 - - - - - - -
27/12:30pm 18.1 N 13 15 1009.6 - 0.0 - - - - - - -
27/12:00pm 18.0 N 13 15 1009.7 - 0.0 - - - - - - -
27/11:30am 17.5 N 12 14 1009.8 - 0.0 - - - - - - -
27/11:00am 17.0 NNW 11 13 1010.2 - 0.0 - - - - - - -
27/10:30am 16.1 SSE 6 8 1010.3 - 0.0 - - - - - - -
27/10:00am 15.1 SSE 7 9 1010.3 - 0.0 - - - - - - -
27/09:30am 14.6 SSE 8 10 1010.1 - 0.0 - - - - - - -
27/09:00am 13.6 SE 8 11 1009.9 - 3.2 Recent precip. - - - - - -
27/08:30am 13.5 SSE 8 11 1010.1 - 2.6 - - - - - - -
27/08:00am 13.5 SSE 10 12 1010.0 - 2.2 - - - - - - -
27/07:30am 13.3 SE 10 13 1009.5 - 1.4 - - - - - - -
27/07:00am 13.6 SE 7 11 1009.6 - 1.2 - - - - - - -
27/06:30am 14.5 SSE 9 12 1009.4 - 0.8 - - - - - - -
27/06:00am 14.3 SSE 10 13 1009.1 - 0.2 - - - - - - -
27/05:30am 14.5 SSE 11 13 1009.0 - 0.2 - - - - - - -
27/05:00am 14.6 SSE 9 11 1009.0 - 0.2 - - - - - - -
27/04:30am 14.6 SSE 8 11 1009.2 - 0.2 - - - - - - -
27/04:00am 14.8 SSE 10 13 1009.3 - 0.2 - - - - - - -
27/03:30am 14.8 SSE 10 13 1009.3 - 0.2 - - - - - - -
27/03:00am 14.9 SSE 9 11 1009.3 - 0.2 - - - - - - -
27/02:30am 14.8 SSE 9 12 1009.4 - 0.2 - - - - - - -
27/02:00am 15.2 SSE 10 14 1009.6 - 0.2 - - - - - - -
27/01:30am 15.6 SSE 12 16 1009.9 - 0.2 - - - - - - -
27/01:00am 16.1 SSE 14 17 1009.8 - 0.2 - - - - - - -
27/12:30am 15.7 SSE 12 16 1009.5 - 0.2 - - - - - - -
27/12:00am 16.2 SSE 13 20 1009.5 - 0.2 - - - - - - -
 
Date/Time
EDT
Temp

°C
Wind Pressure Rain
since 9am
mm
Weather Cloud Vis
km
Sea
Height
m
Swell
Dir
 
Speed
knots
Gust
knots
hPa Trend Height
m
Period
s
Dir
26/11:30pm 17.3 S 15 19 1009.3 - 0.2 - - - - - - -
26/11:00pm 18.0 S 14 17 1009.0 - 0.2 - - - - - - -
26/10:30pm 18.9 SW 7 10 1008.9 - 0.2 - - - - - - -
26/10:00pm 19.7 WSW 9 11 1008.5 - 0.2 - - - - - - -
26/09:30pm 18.9 CALM 0 3 1008.5 - 0.2 - - - - - - -
26/09:00pm 20.1 SSW 6 9 1008.1 - 0.2 - - - - - - -
26/08:30pm 20.7 SW 7 11 1007.6 - 0.2 - - - - - - -
26/08:00pm 20.8 W 11 17 1007.1 - 0.2 - - - - - - -
26/07:30pm 20.2 WNW 11 15 1006.7 - 0.2 - - - - - - -
26/07:00pm 20.1 NW 14 17 1006.7 - 0.2 - - - - - - -
26/06:30pm 20.8 NW 15 17 1006.6 - 0.2 - - - - - - -
26/06:00pm 21.4 NW 13 16 1006.6 - 0.2 - - - - - - -
26/05:30pm 21.3 NW 13 15 1006.5 - 0.2 - - - - - - -
26/05:00pm 21.1 NW 10 11 1006.6 - 0.2 - - - - - - -
26/04:30pm 20.3 NW 12 15 1006.9 - 0.2 - - - - - - -
26/04:00pm 22.0 NW 11 13 1007.0 - 0.2 - - - - - - -
26/03:30pm 21.4 NW 11 13 1007.1 - 0.2 - - - - - - -

Other Formats:

Comma delimited format used in spreadsheet applications
http://www.bom.gov.au/fwo/IDT60701/IDT60701.95964.axf

JavaScript Object Notation format (JSON) in row-major order
http://www.bom.gov.au/fwo/IDT60701/IDT60701.95964.json